Flight Track Log - Related Links

Times and Time Zones

All times are in EDT time to prevent confusion due to time zone crossing. See the UPS1376 flight status page for this flight to view local times or setup timezone preferences in your user account.

Time Position Orientation Groundspeed Altitude Reporting Facility
EDT Latitude Longitude Course Direction KTS MPH feet Rate Location/Type
Fri 05:10:27 AM 38.1522 -85.7183 160° South 169 194 1,800  Level FAA TRACON SMA TRACON (SMA)
Fri 05:10:48 AM 38.1331 -85.7094 160° South 184 212 2,300 1,350 Climbing FAA TRACON SMA TRACON (SMA)
Fri 05:11:07 AM 38.1153 -85.7014 160° South 210 242 2,700 2,100 Climbing FAA TRACON SMA TRACON (SMA)
Fri 05:11:28 AM 38.0919 -85.6908 152° Southeast 234 269 3,700 2,400 Climbing FAA TRACON SMA TRACON (SMA)
Fri 05:11:47 AM 38.0733 -85.6781 144° Southeast 243 280 4,300 1,650 Climbing FAA TRACON SMA TRACON (SMA)
Fri 05:12:08 AM 38.0550 -85.6611 142° Southeast 260 299 4,800 2,049 Climbing FAA TRACON SMA TRACON (SMA)
Fri 05:12:28 AM 38.0311 -85.6375 144° Southeast 281 323 5,700 2,769 Climbing FAA TRACON SMA TRACON (SMA)
Fri 05:12:47 AM 38.0114 -85.6192 145° Southeast 287 330 6,600 2,550 Climbing FAA TRACON SMA TRACON (SMA)
Fri 05:13:08 AM 37.9911 -85.6008 143° Southeast 291 335 7,400 2,400 Climbing FAA TRACON SMA TRACON (SMA)
Fri 05:13:27 AM 37.9711 -85.5819 143° Southeast 292 336 8,200 2,850 Climbing FAA TRACON SMA TRACON (SMA)
Fri 05:13:48 AM 37.9458 -85.5575 143° Southeast 295 339 9,300 2,550 Climbing FAA TRACON SMA TRACON (SMA)
Fri 05:14:07 AM 37.9256 -85.5378 144° Southeast 299 344 9,900 1,846 Climbing FAA TRACON SMA TRACON (SMA)
Fri 05:14:27 AM 37.9042 -85.5181 144° Southeast 306 352 10,500 1,610 Climbing FAA TRACON SMA TRACON (SMA)
Fri 05:14:48 AM 37.8764 -85.4928 145° Southeast 317 365 11,000 1,350 Climbing FAA TRACON SMA TRACON (SMA)
Fri 05:15:07 AM 37.8525 -85.4719 147° Southeast 333 383 11,400 1,200 Climbing FAA TRACON SMA TRACON (SMA)
Fri 05:15:28 AM 37.8208 -85.4461 146° Southeast 351 404 11,800 1,200 Climbing FAA TRACON SMA TRACON (SMA)
Fri 05:15:47 AM 37.7942 -85.4236 146° Southeast 368 423 12,200 1,385 Climbing FAA TRACON SMA TRACON (SMA)
Fri 05:16:07 AM 37.7672 -85.4006 146° Southeast 379 436 12,700 1,756 Climbing FAA TRACON SMA TRACON (SMA)
Fri 05:16:28 AM 37.7325 -85.3714 146° Southeast 389 448 13,400 1,950 Climbing FAA TRACON SMA TRACON (SMA)
Fri 05:16:47 AM 37.7044 -85.3478 147° Southeast 395 455 14,000 1,800 Climbing FAA TRACON SMA TRACON (SMA)
Fri 05:17:08 AM 37.6758 -85.3242 147° Southeast 399 459 14,600 1,950 Climbing FAA TRACON SMA TRACON (SMA)
Fri 05:17:27 AM 37.6394 -85.2942 145° Southeast 404 465 15,300 1,846 Climbing FAA TRACON SMA TRACON (SMA)
Fri 05:17:47 AM 37.6111 -85.2689 148° Southeast 408 470 15,800 1,463 Climbing FAA TRACON SMA TRACON (SMA)
Fri 05:18:08 AM 37.5811 -85.2450 145° Southeast 410 472 16,300 1,500 Climbing FAA TRACON SMA TRACON (SMA)
Fri 05:18:27 AM 37.5447 -85.2125 148° Southeast 417 480 16,800 1,500 Climbing FAA TRACON SMA TRACON (SMA)
Fri 05:18:48 AM 37.5142 -85.1881 148° Southeast 422 486 17,300 1,500 Climbing FAA TRACON SMA TRACON (SMA)
Fri 05:19:07 AM 37.4831 -85.1636 148° Southeast 426 490 17,800 1,742 Climbing FAA TRACON SMA TRACON (SMA)
Fri 05:19:19 AM 37.4628 -85.1478 147° Southeast 415 478 18,200 1,583 Climbing Indianapolis Center
Fri 05:20:19 AM 37.3617 -85.0647 147° Southeast 431 496 19,700 1,400 Climbing Indianapolis Center
Fri 05:21:19 AM 37.2561 -84.9792 146° Southeast 446 513 21,000 545 Climbing Indianapolis Center
Fri 05:22:42 AM 37.1085 -84.8566 147° Southeast 448 516 21,000  Level FlightAware ADS-B
Fri 05:23:12 AM 37.0552 -84.8127 147° Southeast 442 509 21,000  Level FlightAware ADS-B
Fri 05:23:43 AM 37.0026 -84.7694 147° Southeast 440 506 21,000  Level FlightAware ADS-B
Fri 05:24:13 AM 36.9510 -84.7274 147° Southeast 441 507 21,000  Level FlightAware ADS-B
Fri 05:24:44 AM 36.8982 -84.6843 147° Southeast 443 510 21,000 -98 Level FlightAware ADS-B
Fri 05:25:14 AM 36.8461 -84.6419 149° Southeast 442 509 20,900 -800 Descending FlightAware ADS-B
Fri 05:25:44 AM 36.7932 -84.6027 152° Southeast 433 498 20,200 -1,895 Descending FlightAware ADS-B
Fri 05:26:11 AM 36.7457 -84.5717 154° Southeast 429 494 19,100 -2,421 Descending FlightAware ADS-B
Fri 05:26:41 AM 36.6918 -84.5396 153° Southeast 423 487 17,900 -2,262 Descending FlightAware ADS-B
Fri 05:27:12 AM 36.6393 -84.5065 150° Southeast 415 478 16,800 -2,136 Descending FlightAware ADS-B
Fri 05:27:40 AM 36.5931 -84.4734 147° Southeast 407 468 15,800 -2,250 Descending FlightAware ADS-B
Fri 05:28:00 AM 36.5611 -84.4471 143° Southeast 399 459 15,000 -2,318 Descending FlightAware ADS-B
Fri 05:28:24 AM 36.5259 -84.4137 144° Southeast 391 450 14,100 -1,909 Descending FlightAware ADS-B
Fri 05:28:44 AM 36.4965 -84.3871 147° Southeast 378 435 13,600 -1,765 Descending FlightAware ADS-B
Fri 05:29:15 AM 36.4517 -84.3510 154° Southeast 369 425 12,600 -2,066 Descending FlightAware ADS-B
Fri 05:29:45 AM 36.4013 -84.3202 138° Southeast 365 420 11,500 -1,574 Descending FlightAware ADS-B
Fri 05:30:16 AM 36.3654 -84.2795 146° Southeast 367 422 11,000 -476 Descending FlightAware ADS-B
Fri 05:30:48 AM 36.3202 -84.2411 145° Southeast 370 426 11,000  Level FlightAware ADS-B
Fri 05:31:19 AM 36.2794 -84.2057 145° Southeast 329 379 11,000 -194 Level FlightAware ADS-B
Fri 05:31:50 AM 36.2430 -84.1744 145° Southeast 302 348 10,800 -1,071 Descending FlightAware ADS-B
Fri 05:32:15 AM 36.2142 -84.1495 145° Southeast 297 342 10,000 -2,100 Descending FlightAware ADS-B
Fri 05:32:30 AM 36.1972 -84.1348 146° Southeast 295 339 9,400 -2,400 Descending FlightAware ADS-B
Fri 05:32:45 AM 36.1801 -84.1204 146° Southeast 295 339 8,800 -2,400 Descending FlightAware ADS-B
Fri 05:33:00 AM 36.1629 -84.1059 146° Southeast 293 337 8,200 -2,323 Descending FlightAware ADS-B
Fri 05:33:16 AM 36.1452 -84.0909 146° Southeast 288 331 7,600 -2,129 Descending FlightAware ADS-B
Fri 05:33:31 AM 36.1288 -84.0771 146° Southeast 283 326 7,100 -2,000 Descending FlightAware ADS-B
Fri 05:33:46 AM 36.1122 -84.0633 146° Southeast 280 322 6,600 -2,063 Descending FlightAware ADS-B
Fri 05:34:03 AM 36.0939 -84.0480 142° Southeast 280 322 6,000 -1,920 Descending FlightAware ADS-B
Fri 05:34:11 AM 36.0856 -84.0399 137° Southeast 279 321 5,800 -1,440 Descending FlightAware ADS-B
Fri 05:34:28 AM 36.0700 -84.0219 135° Southeast 279 321 5,400 -1,286 Descending FlightAware ADS-B
Fri 05:34:39 AM 36.0591 -84.0085 138° Southeast 277 319 5,200 -1,125 Descending FlightAware ADS-B
Fri 05:34:44 AM 36.0544 -84.0033 140° Southeast 276 318 5,100 -1,667 Descending FlightAware ADS-B
Fri 05:34:57 AM 36.0415 -83.9901 142° Southeast 272 313 4,700 -2,100 Descending FlightAware ADS-B
Fri 05:35:04 AM 36.0346 -83.9834 145° Southeast 271 312 4,400 -2,182 Descending FlightAware ADS-B
Fri 05:35:19 AM 36.0196 -83.9706 150° Southeast 269 310 3,900 -1,636 Descending FlightAware ADS-B
Fri 05:35:26 AM 36.0119 -83.9652 155° Southeast 269 310 3,800 -1,200 Descending FlightAware ADS-B
Fri 05:35:39 AM 35.9967 -83.9565 158° South 266 306 3,500 -1,448 Descending FlightAware ADS-B
Fri 05:35:55 AM 35.9795 -83.9477 158° South 262 302 3,100 -938 Descending FlightAware ADS-B
Fri 05:36:11 AM 35.9621 -83.9392 160° South 243 280 3,000 -273 Descending FlightAware ADS-B
Fri 05:36:17 AM 35.9552 -83.9361 163° South 235 270 3,000 -545 Level FlightAware ADS-B
Fri 05:36:22 AM 35.9507 -83.9344 164° South 232 267 2,900 -1,200 Descending FlightAware ADS-B
Fri 05:36:37 AM 35.9348 -83.9287 164° South 222 255 2,600 -938 Descending FlightAware ADS-B
Fri 05:36:54 AM 35.9193 -83.9232 164° South 207 238 2,400 -581 Descending FlightAware ADS-B
Fri 05:37:08 AM 35.9063 -83.9185 168° South 195 224 2,300 -250 Descending FlightAware ADS-B
Fri 05:37:18 AM 35.8986 -83.9164 175° South 183 211 2,300  Level FlightAware ADS-B
Fri 05:37:30 AM 35.8889 -83.9153 187° South 172 198 2,300  Level FlightAware ADS-B
Fri 05:37:43 AM 35.8791 -83.9168 210° Southwest 148 170 2,300  Level FlightAware ADS-B
Fri 05:37:48 AM 35.8766 -83.9186 221° Southwest 144 166 2,300  Level FlightAware ADS-B
Fri 05:37:56 AM 35.8727 -83.9228 223° Southwest 141 162 2,300 -261 Level FlightAware ADS-B
Fri 05:38:11 AM 35.8651 -83.9314 225° Southwest 144 166 2,200 -600 Descending FlightAware ADS-B
Fri 05:38:36 AM 35.8543 -83.9445 224° Southwest 122 140 1,900 -714 Descending FlightAware ADS-B
Fri 05:38:53 AM 35.8474 -83.9528 225° Southwest 124 143 1,700 -706 Descending FlightAware ADS-B
Fri 05:39:10 AM 35.8401 -83.9618 225° Southwest 127 146 1,500 -643 Descending FlightAware ADS-B
Fri 05:39:49 AM 35.8239 -83.9816 225° Southwest 127 146 1,100 -615 Descending FlightAware ADS-B

Login

Don't have an account? Register now (free) for customized features, flight alerts, and more!